Time;durP1;ratioP1;P1;durP2;ratioP2;P2;SDS_P1;SDS_P2;PMS_P1;PMS_P2;Temp;Humidity;BMP_temperature;BMP_pressure;BME280_temperature;BME280_humidity;BME280_pressure;Samples;Min_cycle;Max_cycle;Signal;HPM_P1;HPM_P2
2023/04/15 00:01:20;;;;;;;8.50;4.30;;;;;;;10.83;59.59;100572.25;104751;1259;67309;-55
2023/04/15 00:03:51;;;;;;;7.50;4.00;;;;;;;10.84;59.67;100568.06;104654;1262;63522;-56
2023/04/15 00:06:20;;;;;;;7.70;4.50;;;;;;;10.82;59.87;100567.91;104630;1259;64009;-55
2023/04/15 00:08:49;;;;;;;6.90;4.40;;;;;;;10.75;60.06;100572.49;104615;1260;60904;-55
2023/04/15 00:11:18;;;;;;;9.20;4.70;;;;;;;10.66;60.33;100573.89;104618;1263;61438;-55
2023/04/15 00:13:50;;;;;;;7.90;4.90;;;;;;;10.56;60.67;100568.16;104593;1262;66235;-55
2023/04/15 00:16:19;;;;;;;8.20;4.70;;;;;;;10.49;61.07;100568.36;108086;1262;63363;-56
2023/04/15 00:18:48;;;;;;;7.70;4.70;;;;;;;10.42;61.22;100570.13;108102;1259;65041;-55
2023/04/15 00:21:19;;;;;;;8.60;4.40;;;;;;;10.34;61.47;100570.69;108125;1258;59731;-55
2023/04/15 00:23:51;;;;;;;8.70;5.20;;;;;;;10.35;61.47;100570.48;108146;1260;60461;-56
2023/04/15 00:26:19;;;;;;;7.60;4.80;;;;;;;10.37;61.39;100570.61;108119;1262;64878;-55
2023/04/15 00:28:52;;;;;;;7.60;4.20;;;;;;;10.37;61.39;100566.84;108091;1263;63230;-56
2023/04/15 00:31:22;;;;;;;6.60;4.60;;;;;;;10.34;61.52;100568.30;108070;1260;65263;-56
2023/04/15 00:33:51;;;;;;;7.40;4.70;;;;;;;10.31;61.58;100571.83;108213;1260;58608;-56
2023/04/15 00:36:21;;;;;;;10.80;4.90;;;;;;;10.28;61.69;100569.59;108116;1264;60083;-55
2023/04/15 00:38:51;;;;;;;8.10;4.40;;;;;;;10.27;61.62;100565.27;108070;1260;66252;-56
2023/04/15 00:41:21;;;;;;;7.20;4.60;;;;;;;10.24;61.35;100553.92;106898;1260;65063;-55
2023/04/15 00:43:51;;;;;;;8.60;4.90;;;;;;;10.18;61.13;100553.15;108007;1260;64992;-56
2023/04/15 00:46:20;;;;;;;6.70;4.10;;;;;;;10.12;61.19;100552.36;105549;1260;60564;-57
2023/04/15 00:48:51;;;;;;;6.90;4.40;;;;;;;10.14;60.97;100553.80;108066;1259;60124;-55
2023/04/15 00:51:20;;;;;;;8.50;4.80;;;;;;;10.17;60.58;100558.61;108054;1260;66106;-56
2023/04/15 00:53:50;;;;;;;9.40;4.30;;;;;;;10.17;60.26;100563.00;108026;1262;62544;-55
2023/04/15 00:56:24;;;;;;;9.90;4.80;;;;;;;10.18;60.04;100565.40;108105;1260;65900;-55
2023/04/15 00:58:54;;;;;;;7.50;3.90;;;;;;;10.17;59.88;100568.46;108112;1260;59949;-55
2023/04/15 01:01:22;;;;;;;6.40;4.30;;;;;;;10.13;59.78;100571.92;108188;1260;58705;-56
2023/04/15 01:03:51;;;;;;;7.00;4.60;;;;;;;10.09;59.89;100570.63;107920;1260;66204;-55
2023/04/15 01:06:20;;;;;;;7.80;4.60;;;;;;;10.07;59.90;100574.30;108103;1260;61673;-55
2023/04/15 01:08:48;;;;;;;8.40;4.50;;;;;;;10.05;59.97;100575.50;108116;1260;64485;-55
2023/04/15 01:11:17;;;;;;;7.90;4.70;;;;;;;10.02;60.04;100575.86;108113;1259;59600;-56
2023/04/15 01:13:48;;;;;;;8.80;4.60;;;;;;;10.00;60.15;100576.91;108069;1259;59344;-56
2023/04/15 01:16:16;;;;;;;6.60;3.90;;;;;;;10.02;60.22;100579.06;108192;1260;66736;-56
2023/04/15 01:18:44;;;;;;;7.80;4.50;;;;;;;10.07;60.14;100571.14;108064;1260;62847;-56
2023/04/15 01:21:13;;;;;;;6.60;4.00;;;;;;;10.12;60.10;100570.91;107253;1262;63933;-55
2023/04/15 01:23:42;;;;;;;7.00;4.40;;;;;;;10.16;59.86;100574.81;108127;1260;60184;-56
2023/04/15 01:26:12;;;;;;;7.80;4.80;;;;;;;10.13;59.70;100578.00;108062;1259;60505;-56
2023/04/15 01:28:41;;;;;;;7.10;5.00;;;;;;;10.06;59.72;100578.92;105096;1260;67642;-55
2023/04/15 01:31:13;;;;;;;7.80;5.00;;;;;;;10.00;59.91;100588.43;104697;1266;61522;-55
2023/04/15 01:33:42;;;;;;;6.90;5.10;;;;;;;9.96;59.94;100594.00;105747;1259;65286;-55
2023/04/15 01:36:10;;;;;;;7.50;4.80;;;;;;;9.92;60.04;100599.27;107240;1263;60663;-55
2023/04/15 01:38:39;;;;;;;7.30;4.40;;;;;;;9.87;60.28;100601.37;104630;1262;60776;-56
2023/04/15 01:41:07;;;;;;;7.60;4.90;;;;;;;9.85;60.37;100606.76;104917;1259;66228;-55
2023/04/15 01:43:36;;;;;;;7.80;4.20;;;;;;;9.83;60.36;100606.86;104590;1259;63147;-54
2023/04/15 01:46:05;;;;;;;7.30;4.60;;;;;;;9.84;60.27;100608.02;104623;1265;66995;-55
2023/04/15 01:48:33;;;;;;;6.80;4.30;;;;;;;9.89;60.09;100602.11;108105;1264;63117;-56
2023/04/15 01:51:03;;;;;;;9.80;5.70;;;;;;;9.90;60.06;100603.08;108033;1259;59705;-56
2023/04/15 01:53:33;;;;;;;8.20;4.70;;;;;;;9.89;60.05;100608.78;107490;1260;66890;-56
2023/04/15 01:56:03;;;;;;;7.90;5.40;;;;;;;9.88;60.20;100611.81;108139;1260;62142;-56
2023/04/15 01:58:31;;;;;;;7.70;5.20;;;;;;;9.86;60.10;100608.91;108061;1260;65042;-56
2023/04/15 02:01:02;;;;;;;7.50;5.30;;;;;;;9.85;59.99;100608.16;108101;1260;59947;-56
2023/04/15 02:03:32;;;;;;;9.30;5.40;;;;;;;9.81;60.01;100607.94;108092;1260;58797;-56
2023/04/15 02:06:01;;;;;;;8.60;5.70;;;;;;;9.79;60.11;100616.29;108076;1260;66320;-55
2023/04/15 02:08:34;;;;;;;7.80;5.30;;;;;;;9.76;60.00;100618.95;108095;1260;62842;-55
2023/04/15 02:11:03;;;;;;;8.80;6.10;;;;;;;9.72;59.90;100624.33;108053;1259;65030;-55
2023/04/15 02:13:32;;;;;;;10.10;5.50;;;;;;;9.69;59.93;100622.84;107987;1259;60541;-55
2023/04/15 02:16:00;;;;;;;8.80;5.30;;;;;;;9.65;60.01;100621.33;108074;1259;60508;-56
2023/04/15 02:18:34;;;;;;;8.00;5.20;;;;;;;9.70;60.05;100620.50;108140;1259;66852;-55
2023/04/15 02:21:04;;;;;;;7.10;5.10;;;;;;;9.79;60.03;100621.73;108190;1260;63267;-56
2023/04/15 02:23:33;;;;;;;9.90;6.00;;;;;;;9.85;59.98;100627.20;108073;1260;63821;-56
2023/04/15 02:26:03;;;;;;;8.60;5.50;;;;;;;9.86;59.83;100622.94;108132;1260;58943;-56
2023/04/15 02:28:32;;;;;;;9.60;5.80;;;;;;;9.83;59.75;100622.45;108082;1260;60322;-56
2023/04/15 02:31:04;;;;;;;8.90;5.80;;;;;;;9.80;59.69;100625.49;108091;1259;66484;-56
2023/04/15 02:33:32;;;;;;;9.80;6.30;;;;;;;9.77;59.65;100629.90;108134;1260;64152;-56
2023/04/15 02:36:01;;;;;;;10.60;6.60;;;;;;;9.74;59.67;100636.95;108214;1260;65145;-56
2023/04/15 02:38:30;;;;;;;9.90;6.10;;;;;;;9.72;59.84;100637.30;108067;1259;59912;-56
2023/04/15 02:41:00;;;;;;;10.30;6.70;;;;;;;9.70;59.91;100642.73;108144;1262;58753;-55
2023/04/15 02:43:29;;;;;;;11.70;6.70;;;;;;;9.64;59.88;100643.30;108099;1260;65534;-56
2023/04/15 02:45:57;;;;;;;10.90;6.70;;;;;;;9.61;60.00;100643.54;108134;1260;62598;-55
2023/04/15 02:48:27;;;;;;;11.10;6.50;;;;;;;9.65;59.93;100644.48;108107;1260;63634;-55
2023/04/15 02:51:16;;;;;;;9.50;5.90;;;;;;;9.71;59.75;100648.62;108052;1260;59983;-56
2023/04/15 02:53:45;;;;;;;9.90;6.20;;;;;;;9.72;59.68;100647.79;108094;1264;59559;-56
2023/04/15 02:56:14;;;;;;;10.50;6.40;;;;;;;9.74;59.77;100647.67;108054;1260;65926;-56
2023/04/15 02:58:43;;;;;;;9.30;5.90;;;;;;;9.75;59.77;100646.36;108123;1260;62761;-56
2023/04/15 03:01:12;;;;;;;11.00;6.30;;;;;;;9.74;59.71;100649.92;108102;1262;66040;-56
2023/04/15 03:03:40;;;;;;;8.80;6.30;;;;;;;9.72;59.84;100652.38;108083;1260;60208;-56
2023/04/15 03:06:09;;;;;;;9.40;6.50;;;;;;;9.68;59.88;100650.37;108158;1260;59028;-55
2023/04/15 03:08:38;;;;;;;9.90;6.70;;;;;;;9.64;59.91;100647.55;108132;1260;68354;-55
2023/04/15 03:11:06;;;;;;;10.20;7.30;;;;;;;9.60;60.01;100646.95;108056;1260;62395;-55
2023/04/15 03:13:38;;;;;;;8.70;6.10;;;;;;;9.56;60.02;100645.30;108071;1260;64068;-55
2023/04/15 03:16:13;;;;;;;9.10;6.00;;;;;;;9.59;60.08;100644.34;108090;1260;60518;-55
2023/04/15 03:18:43;;;;;;;8.90;6.60;;;;;;;9.64;59.92;100641.86;108045;1260;60447;-56
2023/04/15 03:21:11;;;;;;;10.60;6.70;;;;;;;9.67;60.10;100637.88;104954;1262;66418;-55
2023/04/15 03:23:47;;;;;;;10.60;6.40;;;;;;;9.65;60.10;100637.30;104587;1265;62539;-55
2023/04/15 03:26:29;;;;;;;10.00;6.60;;;;;;;9.63;60.17;100639.86;104975;1262;65021;-55
2023/04/15 03:29:09;;;;;;;9.60;6.70;;;;;;;9.59;60.19;100644.36;104592;1260;61644;-56
2023/04/15 03:31:38;;;;;;;9.20;6.30;;;;;;;9.53;60.30;100646.91;104663;1260;60686;-56
2023/04/15 03:34:06;;;;;;;8.90;6.80;;;;;;;9.47;60.51;100644.70;108122;1260;66449;-56
2023/04/15 03:36:35;;;;;;;9.60;6.70;;;;;;;9.43;60.61;100639.02;108040;1260;64633;-56
2023/04/15 03:39:04;;;;;;;8.90;6.20;;;;;;;9.40;60.71;100636.98;108148;1258;64856;-56
2023/04/15 03:41:32;;;;;;;9.20;6.40;;;;;;;9.40;60.69;100641.72;104764;1263;60461;-55
2023/04/15 03:44:04;;;;;;;9.40;6.10;;;;;;;9.45;60.68;100643.42;104698;1260;61249;-54
2023/04/15 03:46:33;;;;;;;9.50;6.80;;;;;;;9.50;60.72;100648.15;104596;1263;65919;-55
2023/04/15 03:49:01;;;;;;;9.20;5.80;;;;;;;9.47;60.76;100649.73;105225;1261;62383;-55
2023/04/15 03:51:30;;;;;;;10.10;6.70;;;;;;;9.50;60.84;100649.40;108116;1260;64161;-55
2023/04/15 03:53:58;;;;;;;9.40;6.30;;;;;;;9.54;60.90;100650.18;108106;1260;61720;-56
2023/04/15 03:56:27;;;;;;;9.30;6.20;;;;;;;9.55;60.78;100646.41;108150;1260;59524;-56
2023/04/15 03:58:56;;;;;;;9.40;6.60;;;;;;;9.54;60.78;100639.44;108108;1262;66269;-55
2023/04/15 04:01:24;;;;;;;7.90;6.00;;;;;;;9.56;60.80;100641.27;108098;1260;62515;-56
2023/04/15 04:03:52;;;;;;;8.90;6.10;;;;;;;9.57;60.87;100645.59;106146;1260;65070;-56
2023/04/15 04:06:21;;;;;;;10.10;6.00;;;;;;;9.61;60.83;100646.31;108081;1260;60398;-56
2023/04/15 04:08:50;;;;;;;8.90;6.10;;;;;;;9.71;60.75;100651.44;108079;1260;58574;-56
2023/04/15 04:11:19;;;;;;;8.00;5.70;;;;;;;9.78;60.66;100654.41;108089;1262;67091;-55
2023/04/15 04:13:53;;;;;;;11.00;6.50;;;;;;;9.80;60.50;100654.73;105619;1260;62365;-56
2023/04/15 04:16:22;;;;;;;12.40;6.40;;;;;;;9.81;60.75;100654.71;108067;1262;65432;-56
2023/04/15 04:18:50;;;;;;;8.90;6.10;;;;;;;9.84;60.72;100660.77;108152;1260;58714;-55
2023/04/15 04:21:19;;;;;;;9.10;6.00;;;;;;;9.84;60.63;100664.65;108090;1260;59219;-56
2023/04/15 04:23:48;;;;;;;11.70;6.50;;;;;;;9.80;60.49;100664.75;108087;1260;66492;-56
2023/04/15 04:26:16;;;;;;;10.20;6.70;;;;;;;9.75;60.49;100665.81;108124;1260;61226;-56
2023/04/15 04:28:44;;;;;;;12.00;6.80;;;;;;;9.69;60.35;100664.31;108133;1260;66523;-56
2023/04/15 04:31:12;;;;;;;9.80;6.50;;;;;;;9.64;60.37;100667.84;108107;1260;60396;-55
2023/04/15 04:33:42;;;;;;;9.30;6.40;;;;;;;9.61;60.40;100672.42;108337;1259;59392;-56
2023/04/15 04:36:10;;;;;;;9.30;5.60;;;;;;;9.63;60.45;100676.45;108313;1258;66169;-55
2023/04/15 04:38:40;;;;;;;11.00;6.20;;;;;;;9.67;60.41;100673.20;108313;1257;61505;-55
2023/04/15 04:41:08;;;;;;;11.10;6.50;;;;;;;9.72;60.40;100673.92;108281;1257;65948;-56
2023/04/15 04:43:36;;;;;;;10.80;7.60;;;;;;;9.74;60.60;100676.20;108390;1259;58493;-56
2023/04/15 04:46:05;;;;;;;11.20;7.40;;;;;;;9.77;60.70;100669.00;108303;1259;58117;-56
2023/04/15 04:48:34;;;;;;;11.60;7.70;;;;;;;9.80;60.61;100667.39;108373;1259;66507;-55
2023/04/15 04:51:02;;;;;;;10.20;7.50;;;;;;;9.78;60.30;100672.44;108354;1257;62167;-55
2023/04/15 04:53:32;;;;;;;10.20;7.30;;;;;;;9.74;60.23;100672.36;105549;1259;65221;-54
2023/04/15 04:56:01;;;;;;;13.10;7.80;;;;;;;9.71;60.27;100673.11;106206;1259;60477;-54
2023/04/15 04:58:29;;;;;;;11.30;8.10;;;;;;;9.69;60.35;100675.73;104856;1259;61595;-55
2023/04/15 05:00:58;;;;;;;10.90;7.90;;;;;;;9.66;60.35;100673.14;104816;1257;65222;-55
2023/04/15 05:03:27;;;;;;;11.00;6.80;;;;;;;9.64;60.43;100675.02;108308;1262;63165;-55
2023/04/15 05:05:55;;;;;;;8.90;6.90;;;;;;;9.67;60.29;100672.17;107357;1260;64589;-56
2023/04/15 05:08:28;;;;;;;9.40;6.00;;;;;;;9.74;60.11;100672.39;108292;1257;58668;-55
2023/04/15 05:10:57;;;;;;;10.40;6.40;;;;;;;9.80;60.15;100674.55;107735;1259;58848;-54
2023/04/15 05:13:25;;;;;;;10.70;6.30;;;;;;;9.84;59.94;100675.14;104836;1257;65288;-54
2023/04/15 05:15:55;;;;;;;11.90;6.10;;;;;;;9.86;59.82;100673.41;107178;1260;63682;-54
2023/04/15 05:18:29;;;;;;;10.40;6.10;;;;;;;9.88;59.77;100672.77;104871;1260;64283;-55
2023/04/15 05:20:58;;;;;;;9.40;6.60;;;;;;;9.89;59.70;100673.73;104847;1260;60562;-54
2023/04/15 05:23:26;;;;;;;10.40;6.20;;;;;;;9.89;59.49;100675.00;104878;1257;60565;-54
2023/04/15 05:25:54;;;;;;;10.10;5.90;;;;;;;9.84;59.60;100679.85;108285;1259;65887;-57
2023/04/15 05:28:24;;;;;;;9.10;6.60;;;;;;;9.80;59.52;100684.05;108357;1259;61592;-58
2023/04/15 05:30:52;;;;;;;11.00;6.60;;;;;;;9.77;59.58;100684.91;108317;1259;64635;-55
2023/04/15 05:33:21;;;;;;;8.50;5.90;;;;;;;9.76;59.67;100687.52;108366;1259;60939;-55
2023/04/15 05:35:51;;;;;;;11.20;6.20;;;;;;;9.75;59.79;100689.68;108411;1257;59366;-55
2023/04/15 05:38:19;;;;;;;8.90;5.60;;;;;;;9.79;59.72;100693.40;105360;1260;65843;-55
2023/04/15 05:40:47;;;;;;;8.70;5.60;;;;;;;9.84;59.63;100692.48;104890;1259;62988;-54
2023/04/15 05:43:18;;;;;;;8.10;5.60;;;;;;;9.88;59.70;100690.84;104821;1260;64733;-55
2023/04/15 05:45:50;;;;;;;11.60;5.60;;;;;;;9.90;59.70;100696.48;104887;1260;60374;-55
2023/04/15 05:48:19;;;;;;;8.00;5.50;;;;;;;9.88;59.69;100704.86;104914;1260;62406;-55
2023/04/15 05:50:47;;;;;;;12.00;6.50;;;;;;;9.82;59.76;100705.40;104916;1257;65194;-55
2023/04/15 05:53:16;;;;;;;9.90;7.20;;;;;;;9.79;59.79;100702.84;108312;1260;62463;-57
2023/04/15 05:55:45;;;;;;;12.70;6.50;;;;;;;9.75;59.93;100700.84;108280;1260;65302;-57
2023/04/15 05:58:13;;;;;;;10.50;6.20;;;;;;;9.72;60.07;100698.44;108324;1255;60322;-56
2023/04/15 06:00:46;;;;;;;9.30;6.60;;;;;;;9.69;60.14;100698.15;108325;1260;59692;-57
2023/04/15 06:03:16;;;;;;;9.90;6.10;;;;;;;9.67;60.12;100697.91;108315;1258;65930;-57
2023/04/15 06:05:44;;;;;;;7.80;5.00;;;;;;;9.72;60.16;100701.08;107314;1261;62366;-57
2023/04/15 06:08:12;;;;;;;7.30;5.00;;;;;;;9.82;60.01;100704.22;104847;1260;72346;-57
2023/04/15 06:10:40;;;;;;;8.60;5.60;;;;;;;9.91;60.03;100707.42;104808;1263;61313;-55
2023/04/15 06:13:11;;;;;;;7.90;5.40;;;;;;;9.96;59.80;100705.46;104885;1268;61070;-55
2023/04/15 06:15:41;;;;;;;8.70;5.50;;;;;;;9.96;59.48;100700.96;107465;1260;66432;-56
2023/04/15 06:18:10;;;;;;;8.10;5.70;;;;;;;9.95;59.55;100705.38;104830;1264;64325;-55
2023/04/15 06:20:39;;;;;;;8.60;5.30;;;;;;;9.96;59.59;100703.55;104794;1259;65918;-55
2023/04/15 06:23:07;;;;;;;9.20;6.00;;;;;;;9.97;59.65;100704.84;105005;1269;60520;-55
2023/04/15 06:25:35;;;;;;;8.50;6.00;;;;;;;9.97;59.44;100703.13;104862;1263;60506;-56
2023/04/15 06:28:03;;;;;;;10.50;6.00;;;;;;;9.97;59.20;100706.48;104766;1258;66528;-55
2023/04/15 06:30:31;;;;;;;7.60;4.80;;;;;;;9.96;59.04;100707.41;108189;1256;213591;-55
2023/04/15 06:46:36;;;;;;;8.20;5.50;;;;;;;10.09;58.31;100719.80;101318;1289;605108;-55
2023/04/15 06:49:04;;;;;;;7.40;4.70;;;;;;;10.45;57.05;100725.27;107518;1266;105288;-56
2023/04/15 06:51:31;;;;;;;8.20;5.10;;;;;;;10.40;57.35;100726.69;107806;1267;58020;-56
2023/04/15 06:53:58;;;;;;;11.40;5.10;;;;;;;10.33;57.50;100722.13;108388;1256;64259;-56
2023/04/15 06:56:26;;;;;;;7.90;4.90;;;;;;;10.27;57.66;100717.64;108461;1260;61719;-55
2023/04/15 06:58:52;;;;;;;10.20;5.30;;;;;;;10.25;57.48;100715.83;108453;1256;65440;-56
2023/04/15 07:01:22;;;;;;;6.60;4.40;;;;;;;10.25;57.55;100717.79;107816;1258;59228;-56
2023/04/15 07:03:49;;;;;;;10.90;4.80;;;;;;;10.28;57.49;100712.33;105008;1261;59555;-55
2023/04/15 07:06:16;;;;;;;7.10;4.00;;;;;;;10.31;57.32;100717.33;104866;1261;67134;-55
2023/04/15 07:08:45;;;;;;;9.80;4.70;;;;;;;10.34;57.37;100720.30;104907;1257;62761;-55
2023/04/15 07:11:13;;;;;;;7.90;4.30;;;;;;;10.36;57.37;100728.88;105000;1257;64910;-55
2023/04/15 07:13:40;;;;;;;9.00;4.80;;;;;;;10.39;57.33;100731.54;104889;1260;59685;-56
2023/04/15 07:16:10;;;;;;;7.30;4.40;;;;;;;10.41;57.15;100731.88;104975;1258;59616;-56
2023/04/15 07:18:37;;;;;;;7.80;4.70;;;;;;;10.44;57.03;100728.70;104986;1258;65750;-54
2023/04/15 07:21:04;;;;;;;8.00;4.40;;;;;;;10.46;57.04;100723.47;104940;1261;65713;-55
2023/04/15 07:23:31;;;;;;;8.30;4.70;;;;;;;10.41;56.88;100721.17;105014;1257;64730;-56
2023/04/15 07:25:59;;;;;;;7.90;4.40;;;;;;;10.38;57.12;100716.98;104853;1257;60786;-55
2023/04/15 07:28:26;;;;;;;7.40;4.30;;;;;;;10.37;57.04;100723.26;108384;1256;58338;-56
2023/04/15 07:30:54;;;;;;;9.90;4.50;;;;;;;10.34;57.11;100728.34;105785;1254;65313;-56
2023/04/15 07:33:29;;;;;;;8.50;3.80;;;;;;;10.27;57.35;100736.88;104923;1257;74136;-55
2023/04/15 07:35:56;;;;;;;8.30;4.40;;;;;;;10.22;57.50;100737.08;104966;1257;67589;-56
2023/04/15 07:38:23;;;;;;;11.30;4.90;;;;;;;10.17;57.65;100740.41;108471;1255;58438;-55
2023/04/15 07:40:50;;;;;;;7.60;4.20;;;;;;;10.18;57.48;100739.80;108398;1256;58279;-57
2023/04/15 07:43:20;;;;;;;7.10;4.00;;;;;;;10.21;57.45;100745.55;108406;1257;67593;-56
2023/04/15 07:45:47;;;;;;;8.50;4.30;;;;;;;10.19;57.52;100747.61;108408;1259;61551;-56
2023/04/15 07:48:14;;;;;;;7.60;4.50;;;;;;;10.16;57.80;100747.13;108375;1257;64771;-56
2023/04/15 07:50:41;;;;;;;8.50;4.60;;;;;;;10.11;57.95;100742.80;108404;1257;59459;-56
2023/04/15 07:53:09;;;;;;;7.40;4.00;;;;;;;10.08;57.91;100744.73;108449;1256;58783;-56
2023/04/15 07:55:36;;;;;;;8.70;4.50;;;;;;;10.05;57.88;100746.88;108438;1256;65951;-56
2023/04/15 07:58:04;;;;;;;7.30;4.00;;;;;;;10.01;57.93;100747.21;108461;1256;62421;-56
2023/04/15 08:00:35;;;;;;;8.20;4.80;;;;;;;9.99;58.15;100741.58;108393;1259;64609;-57
2023/04/15 08:03:02;;;;;;;7.20;4.30;;;;;;;9.97;58.36;100739.92;108410;1254;58883;-56
2023/04/15 08:05:32;;;;;;;7.00;4.10;;;;;;;9.97;58.33;100744.87;108412;1256;59045;-54
2023/04/15 08:08:00;;;;;;;9.60;4.80;;;;;;;9.96;58.20;100742.11;106399;1259;65379;-56
2023/04/15 08:10:28;;;;;;;7.50;4.70;;;;;;;9.96;58.06;100744.39;108379;1256;63212;-57
2023/04/15 08:12:55;;;;;;;7.80;4.30;;;;;;;9.98;58.14;100744.76;107823;1256;64767;-56
2023/04/15 08:15:24;;;;;;;7.50;4.20;;;;;;;10.01;58.23;100744.17;104857;1261;60054;-55
2023/04/15 08:17:52;;;;;;;11.50;3.60;;;;;;;10.10;58.02;100745.88;108393;1256;59406;-55
2023/04/15 08:20:21;;;;;;;8.00;4.10;;;;;;;10.19;57.65;100749.20;108415;1259;64913;-56
2023/04/15 08:22:50;;;;;;;6.50;3.80;;;;;;;10.23;57.25;100747.52;108410;1257;61448;-56
2023/04/15 08:25:20;;;;;;;7.20;4.30;;;;;;;10.25;56.92;100748.64;108454;1257;65781;-56
2023/04/15 08:27:48;;;;;;;7.60;3.90;;;;;;;10.26;56.70;100748.52;108377;1257;60144;-56
2023/04/15 08:30:18;;;;;;;8.30;3.80;;;;;;;10.26;56.82;100750.82;108408;1259;57943;-56
2023/04/15 08:32:45;;;;;;;8.80;3.40;;;;;;;10.26;56.53;100748.95;108423;1256;65440;-56
2023/04/15 08:35:12;;;;;;;6.40;3.60;;;;;;;10.23;56.35;100745.27;108546;1256;62201;-56
2023/04/15 08:37:42;;;;;;;7.90;4.10;;;;;;;10.20;56.33;100751.58;108420;1257;64027;-56
2023/04/15 08:40:10;;;;;;;7.30;4.00;;;;;;;10.17;56.37;100749.34;108369;1256;58947;-56
2023/04/15 08:42:47;;;;;;;6.70;3.70;;;;;;;10.14;56.15;100743.43;105420;1257;59753;-55
2023/04/15 08:45:18;;;;;;;7.40;4.30;;;;;;;10.05;56.07;100744.48;108231;1257;67613;-55
2023/04/15 08:47:46;;;;;;;7.10;4.40;;;;;;;10.00;55.98;100744.60;108285;1260;63062;-55
2023/04/15 08:50:13;;;;;;;7.20;3.80;;;;;;;9.94;56.07;100736.48;108308;1257;64743;-55
2023/04/15 08:52:41;;;;;;;7.20;4.00;;;;;;;9.88;56.20;100741.61;108449;1256;59036;-55
2023/04/15 08:55:08;;;;;;;6.80;3.90;;;;;;;9.84;56.40;100742.42;107052;1259;59863;-55
2023/04/15 08:57:35;;;;;;;9.30;4.40;;;;;;;9.89;56.40;100747.02;108158;1257;64322;-55
2023/04/15 09:00:02;;;;;;;6.60;3.80;;;;;;;9.81;56.64;100754.23;108213;1256;63039;-55
2023/04/15 09:02:31;;;;;;;7.70;4.50;;;;;;;9.76;56.79;100755.48;108407;1256;66899;-54
2023/04/15 09:04:58;;;;;;;8.90;4.80;;;;;;;9.73;56.70;100755.62;108388;1256;60114;-55
2023/04/15 09:07:25;;;;;;;10.40;4.50;;;;;;;9.73;56.89;100755.70;108397;1257;58341;-55
2023/04/15 09:09:53;;;;;;;6.60;3.60;;;;;;;9.78;56.96;100746.54;108336;1259;73999;-56
2023/04/15 09:12:19;;;;;;;7.60;4.30;;;;;;;9.86;57.06;100744.25;108408;1257;61771;-55
2023/04/15 09:14:47;;;;;;;7.90;4.40;;;;;;;9.96;57.04;100748.45;108414;1256;64911;-57
2023/04/15 09:17:13;;;;;;;7.60;4.50;;;;;;;10.02;56.81;100746.80;108188;1256;59378;-55
2023/04/15 09:19:40;;;;;;;7.40;4.70;;;;;;;10.05;56.92;100753.06;108175;1255;59702;-55
2023/04/15 09:22:07;;;;;;;9.30;4.60;;;;;;;10.08;56.71;100753.85;108378;1257;73815;-55
2023/04/15 09:24:38;;;;;;;7.70;4.30;;;;;;;10.09;56.55;100758.00;108164;1257;62657;-55
2023/04/15 09:27:05;;;;;;;6.80;4.30;;;;;;;10.05;56.63;100761.14;108410;1256;64300;-55
2023/04/15 09:29:32;;;;;;;7.30;4.00;;;;;;;10.00;56.75;100757.05;108412;1255;59336;-56
2023/04/15 09:32:13;;;;;;;7.80;4.30;;;;;;;9.99;56.77;100759.78;108356;1259;59687;-56
2023/04/15 09:34:41;;;;;;;8.00;4.70;;;;;;;9.99;56.72;100764.36;108487;1255;65248;-56
2023/04/15 09:37:09;;;;;;;9.70;5.60;;;;;;;9.98;56.60;100765.95;108340;1256;62626;-57
2023/04/15 09:39:52;;;;;;;8.40;4.50;;;;;;;9.96;56.82;100765.96;106952;1256;65259;-56
2023/04/15 09:42:26;;;;;;;8.00;4.90;;;;;;;9.92;56.67;100761.14;104924;1259;60345;-57
2023/04/15 09:44:53;;;;;;;8.90;4.50;;;;;;;9.86;56.50;100767.71;108404;1257;60830;-57
2023/04/15 09:47:27;;;;;;;7.90;4.60;;;;;;;9.80;56.82;100775.17;108265;1257;64192;-56
2023/04/15 09:49:56;;;;;;;7.30;4.40;;;;;;;9.76;57.04;100772.23;108365;1256;62374;-57
2023/04/15 09:52:22;;;;;;;8.50;4.70;;;;;;;9.76;57.11;100769.09;108378;1257;64053;-57
2023/04/15 09:54:49;;;;;;;11.40;5.10;;;;;;;9.76;57.15;100771.23;108407;1254;58783;-57
2023/04/15 09:57:16;;;;;;;8.20;4.70;;;;;;;9.76;57.12;100772.23;108170;1257;57705;-57
2023/04/15 09:59:43;;;;;;;9.60;4.80;;;;;;;9.77;57.19;100768.20;108350;1257;65201;-56
2023/04/15 10:02:10;;;;;;;8.80;4.30;;;;;;;9.81;57.12;100764.88;108433;1259;62543;-57
2023/04/15 10:04:39;;;;;;;8.20;4.50;;;;;;;9.89;57.06;100765.02;108217;1257;65242;-57
2023/04/15 10:07:10;;;;;;;6.80;4.20;;;;;;;9.97;56.96;100768.15;106817;1256;59791;-56
2023/04/15 10:09:37;;;;;;;7.30;4.30;;;;;;;10.00;56.64;100771.59;108199;1256;58733;-56
2023/04/15 10:12:04;;;;;;;7.60;4.60;;;;;;;10.00;56.53;100772.66;107661;1259;65407;-56
2023/04/15 10:14:33;;;;;;;6.60;4.30;;;;;;;10.01;56.42;100769.80;104911;1259;62694;-57
2023/04/15 10:17:03;;;;;;;8.10;4.40;;;;;;;10.01;56.37;100764.23;104805;1261;66453;-57
2023/04/15 10:19:32;;;;;;;7.30;4.40;;;;;;;9.97;56.41;100767.61;104950;1256;60893;-55
2023/04/15 10:21:59;;;;;;;8.50;4.90;;;;;;;9.92;56.36;100770.59;104882;1256;59678;-56
2023/04/15 10:24:26;;;;;;;8.40;4.50;;;;;;;9.88;56.46;100783.34;108294;1257;65107;-55
2023/04/15 10:26:53;;;;;;;7.30;4.30;;;;;;;9.84;56.55;100786.79;108229;1260;62441;-56
2023/04/15 10:29:20;;;;;;;9.90;4.80;;;;;;;9.79;56.55;100789.21;108437;1256;63882;-56
2023/04/15 10:31:47;;;;;;;7.10;4.50;;;;;;;9.75;56.75;100784.95;108186;1257;59875;-56
2023/04/15 10:34:14;;;;;;;6.90;3.80;;;;;;;9.74;56.78;100787.86;107363;1259;59255;-55
2023/04/15 10:36:41;;;;;;;7.50;4.40;;;;;;;9.73;57.04;100789.11;108316;1257;65441;-55
2023/04/15 10:39:33;;;;;;;10.70;5.10;;;;;;;9.73;57.25;100791.03;108397;1256;64384;-56
2023/04/15 10:42:18;;;;;;;7.60;3.90;;;;;;;9.75;57.34;100796.14;108395;1256;64802;-55
2023/04/15 10:44:50;;;;;;;9.10;4.10;;;;;;;9.84;57.01;100796.75;108460;1259;58896;-55
2023/04/15 10:47:19;;;;;;;7.10;4.10;;;;;;;9.92;56.72;100792.39;107458;1255;58209;-56
2023/04/15 10:49:57;;;;;;;12.60;4.70;;;;;;;9.95;56.47;100795.52;108399;1256;65700;-56
2023/04/15 10:52:26;;;;;;;7.40;4.50;;;;;;;9.96;56.33;100790.65;106550;1257;62673;-56
2023/04/15 10:55:15;;;;;;;9.00;4.40;;;;;;;9.98;56.16;100793.13;108364;1256;64788;-56
2023/04/15 10:57:44;;;;;;;7.80;4.60;;;;;;;10.00;56.29;100790.24;108381;1256;60262;-56
2023/04/15 11:00:15;;;;;;;9.10;4.50;;;;;;;10.05;56.20;100788.10;108384;1257;58365;-56
2023/04/15 11:02:42;;;;;;;8.80;4.60;;;;;;;10.02;56.22;100788.51;108419;1256;66569;-56
2023/04/15 11:05:10;;;;;;;9.70;4.80;;;;;;;9.99;56.44;100786.58;108377;1257;62345;-56
2023/04/15 11:07:43;;;;;;;7.30;4.40;;;;;;;10.00;56.49;100788.30;108355;1259;65197;-56
2023/04/15 11:10:20;;;;;;;7.90;4.70;;;;;;;9.99;56.38;100787.15;108357;1257;59899;-56
2023/04/15 11:12:50;;;;;;;7.40;4.50;;;;;;;9.98;56.26;100789.66;108413;1254;58918;-56
2023/04/15 11:15:39;;;;;;;7.70;4.70;;;;;;;9.96;56.25;100794.15;108323;1259;66031;-56
2023/04/15 11:18:13;;;;;;;8.20;5.30;;;;;;;9.94;56.42;100795.39;108251;1256;61632;-56
2023/04/15 11:20:43;;;;;;;6.50;4.60;;;;;;;9.90;56.54;100797.92;108414;1257;64837;-55
2023/04/15 11:23:10;;;;;;;8.40;5.00;;;;;;;9.86;56.73;100794.88;108369;1256;59463;-55
2023/04/15 11:25:42;;;;;;;8.70;4.20;;;;;;;9.83;56.94;100789.64;108374;1257;59130;-56
2023/04/15 11:28:09;;;;;;;7.90;4.40;;;;;;;9.87;56.59;100788.15;108395;1256;64964;-56
2023/04/15 11:30:36;;;;;;;8.10;3.90;;;;;;;9.94;56.60;100790.80;108410;1256;71420;-56
2023/04/15 11:33:07;;;;;;;7.90;5.00;;;;;;;9.99;56.50;100791.31;108350;1256;63957;-57
2023/04/15 11:35:34;;;;;;;10.00;5.30;;;;;;;10.00;56.46;100791.78;108448;1257;59208;-56
2023/04/15 11:38:02;;;;;;;7.20;4.00;;;;;;;10.01;56.51;100795.77;106194;1257;60547;-55
2023/04/15 11:40:30;;;;;;;8.50;4.70;;;;;;;10.02;56.57;100791.84;104917;1256;76216;-55
2023/04/15 11:43:06;;;;;;;7.20;4.80;;;;;;;10.00;56.47;100781.83;106293;1257;62846;-56
2023/04/15 11:45:34;;;;;;;9.70;4.90;;;;;;;9.95;56.54;100783.17;104860;1257;64117;-55